sensor_id;sensor_type;location;lat;lon;timestamp;P1;durP1;ratioP1;P2;durP2;ratioP2
73678;SDS011;61978;52.742;16.962;2023-05-24T00:02:05;15.20;;;8.20;;
73678;SDS011;61978;52.742;16.962;2023-05-24T00:04:32;10.80;;;8.30;;
73678;SDS011;61978;52.742;16.962;2023-05-24T00:06:58;11.40;;;7.40;;
73678;SDS011;61978;52.742;16.962;2023-05-24T00:09:28;12.60;;;6.60;;
73678;SDS011;61978;52.742;16.962;2023-05-24T00:11:54;16.10;;;6.60;;
73678;SDS011;61978;52.742;16.962;2023-05-24T00:14:21;11.20;;;7.40;;
73678;SDS011;61978;52.742;16.962;2023-05-24T00:16:47;11.70;;;7.70;;
73678;SDS011;61978;52.742;16.962;2023-05-24T00:19:12;11.60;;;8.70;;
73678;SDS011;61978;52.742;16.962;2023-05-24T00:21:43;17.90;;;8.80;;
73678;SDS011;61978;52.742;16.962;2023-05-24T00:24:09;11.30;;;8.30;;
73678;SDS011;61978;52.742;16.962;2023-05-24T00:26:35;11.70;;;7.60;;
73678;SDS011;61978;52.742;16.962;2023-05-24T00:29:01;13.50;;;8.30;;
73678;SDS011;61978;52.742;16.962;2023-05-24T00:31:27;18.50;;;8.80;;
73678;SDS011;61978;52.742;16.962;2023-05-24T00:33:53;12.80;;;9.10;;
73678;SDS011;61978;52.742;16.962;2023-05-24T00:36:19;20.70;;;10.60;;
73678;SDS011;61978;52.742;16.962;2023-05-24T00:38:46;13.20;;;10.30;;
73678;SDS011;61978;52.742;16.962;2023-05-24T00:41:14;16.00;;;10.30;;
73678;SDS011;61978;52.742;16.962;2023-05-24T00:43:41;13.40;;;9.90;;
73678;SDS011;61978;52.742;16.962;2023-05-24T00:46:20;15.30;;;9.90;;
73678;SDS011;61978;52.742;16.962;2023-05-24T00:48:49;16.00;;;10.70;;
73678;SDS011;61978;52.742;16.962;2023-05-24T00:51:16;17.00;;;10.80;;
73678;SDS011;61978;52.742;16.962;2023-05-24T00:53:43;15.20;;;9.80;;
73678;SDS011;61978;52.742;16.962;2023-05-24T00:56:10;18.80;;;10.50;;
73678;SDS011;61978;52.742;16.962;2023-05-24T00:58:37;16.20;;;11.20;;
73678;SDS011;61978;52.742;16.962;2023-05-24T01:01:04;17.30;;;11.80;;
73678;SDS011;61978;52.742;16.962;2023-05-24T01:03:30;14.90;;;10.20;;
73678;SDS011;61978;52.742;16.962;2023-05-24T01:05:59;16.40;;;11.40;;
73678;SDS011;61978;52.742;16.962;2023-05-24T01:08:34;16.10;;;11.70;;
73678;SDS011;61978;52.742;16.962;2023-05-24T01:16:23;23.30;;;11.90;;
73678;SDS011;61978;52.742;16.962;2023-05-24T01:18:56;16.00;;;11.50;;
73678;SDS011;61978;52.742;16.962;2023-05-24T01:23:58;14.70;;;11.40;;
73678;SDS011;61978;52.742;16.962;2023-05-24T01:26:36;16.80;;;10.00;;
73678;SDS011;61978;52.742;16.962;2023-05-24T01:29:03;13.00;;;9.80;;
73678;SDS011;61978;52.742;16.962;2023-05-24T01:31:29;14.00;;;9.10;;
73678;SDS011;61978;52.742;16.962;2023-05-24T01:33:54;12.00;;;9.00;;
73678;SDS011;61978;52.742;16.962;2023-05-24T01:36:20;12.90;;;10.20;;
73678;SDS011;61978;52.742;16.962;2023-05-24T01:38:46;12.10;;;7.70;;
73678;SDS011;61978;52.742;16.962;2023-05-24T01:41:20;10.30;;;8.50;;
73678;SDS011;61978;52.742;16.962;2023-05-24T01:44:02;11.40;;;8.40;;
73678;SDS011;61978;52.742;16.962;2023-05-24T01:46:36;10.40;;;8.10;;
73678;SDS011;61978;52.742;16.962;2023-05-24T01:49:05;12.20;;;8.20;;
73678;SDS011;61978;52.742;16.962;2023-05-24T01:51:36;8.50;;;7.40;;
73678;SDS011;61978;52.742;16.962;2023-05-24T01:54:03;9.00;;;7.30;;
73678;SDS011;61978;52.742;16.962;2023-05-24T01:56:29;6.80;;;6.10;;
73678;SDS011;61978;52.742;16.962;2023-05-24T01:58:56;9.50;;;6.50;;
73678;SDS011;61978;52.742;16.962;2023-05-24T02:01:23;8.10;;;7.00;;
73678;SDS011;61978;52.742;16.962;2023-05-24T02:03:51;7.30;;;6.20;;
73678;SDS011;61978;52.742;16.962;2023-05-24T02:06:17;7.20;;;5.90;;
73678;SDS011;61978;52.742;16.962;2023-05-24T02:08:43;10.50;;;6.40;;
73678;SDS011;61978;52.742;16.962;2023-05-24T02:11:09;9.10;;;6.20;;
73678;SDS011;61978;52.742;16.962;2023-05-24T02:13:34;6.80;;;5.90;;
73678;SDS011;61978;52.742;16.962;2023-05-24T02:16:00;6.80;;;6.00;;
73678;SDS011;61978;52.742;16.962;2023-05-24T02:18:26;5.50;;;4.90;;
73678;SDS011;61978;52.742;16.962;2023-05-24T02:20:51;6.30;;;5.50;;
73678;SDS011;61978;52.742;16.962;2023-05-24T02:23:17;6.10;;;4.50;;
73678;SDS011;61978;52.742;16.962;2023-05-24T02:25:43;7.70;;;6.20;;
73678;SDS011;61978;52.742;16.962;2023-05-24T02:28:08;8.70;;;5.80;;
73678;SDS011;61978;52.742;16.962;2023-05-24T02:30:34;6.30;;;5.30;;
73678;SDS011;61978;52.742;16.962;2023-05-24T02:33:00;8.30;;;4.60;;
73678;SDS011;61978;52.742;16.962;2023-05-24T02:35:26;7.60;;;5.90;;
73678;SDS011;61978;52.742;16.962;2023-05-24T02:37:52;8.90;;;5.00;;
73678;SDS011;61978;52.742;16.962;2023-05-24T02:40:17;5.60;;;5.00;;
73678;SDS011;61978;52.742;16.962;2023-05-24T02:42:43;8.30;;;5.00;;
73678;SDS011;61978;52.742;16.962;2023-05-24T02:45:09;5.20;;;4.70;;
73678;SDS011;61978;52.742;16.962;2023-05-24T02:47:35;6.80;;;4.70;;
73678;SDS011;61978;52.742;16.962;2023-05-24T02:50:00;4.90;;;4.40;;
73678;SDS011;61978;52.742;16.962;2023-05-24T02:52:26;5.90;;;4.70;;
73678;SDS011;61978;52.742;16.962;2023-05-24T02:54:52;6.30;;;5.50;;
73678;SDS011;61978;52.742;16.962;2023-05-24T02:57:19;6.40;;;4.90;;
73678;SDS011;61978;52.742;16.962;2023-05-24T02:59:45;4.40;;;4.00;;
73678;SDS011;61978;52.742;16.962;2023-05-24T03:02:11;5.50;;;4.10;;
73678;SDS011;61978;52.742;16.962;2023-05-24T03:04:38;7.00;;;4.70;;
73678;SDS011;61978;52.742;16.962;2023-05-24T03:07:04;5.00;;;4.50;;
73678;SDS011;61978;52.742;16.962;2023-05-24T03:09:30;5.00;;;4.50;;
73678;SDS011;61978;52.742;16.962;2023-05-24T03:11:56;6.70;;;4.40;;
73678;SDS011;61978;52.742;16.962;2023-05-24T03:14:22;4.00;;;3.50;;
73678;SDS011;61978;52.742;16.962;2023-05-24T03:16:50;11.70;;;4.00;;
73678;SDS011;61978;52.742;16.962;2023-05-24T03:19:16;5.70;;;4.20;;
73678;SDS011;61978;52.742;16.962;2023-05-24T03:21:42;7.40;;;5.00;;
73678;SDS011;61978;52.742;16.962;2023-05-24T03:24:08;3.90;;;3.60;;
73678;SDS011;61978;52.742;16.962;2023-05-24T03:26:34;4.80;;;4.30;;
73678;SDS011;61978;52.742;16.962;2023-05-24T03:29:00;4.50;;;3.50;;
73678;SDS011;61978;52.742;16.962;2023-05-24T03:31:31;5.70;;;4.10;;
73678;SDS011;61978;52.742;16.962;2023-05-24T03:33:57;7.30;;;4.30;;
73678;SDS011;61978;52.742;16.962;2023-05-24T03:36:23;7.20;;;3.50;;
73678;SDS011;61978;52.742;16.962;2023-05-24T03:38:50;7.30;;;3.60;;
73678;SDS011;61978;52.742;16.962;2023-05-24T03:41:17;4.90;;;3.70;;
73678;SDS011;61978;52.742;16.962;2023-05-24T03:43:42;5.60;;;3.90;;
73678;SDS011;61978;52.742;16.962;2023-05-24T03:46:13;3.70;;;2.60;;
73678;SDS011;61978;52.742;16.962;2023-05-24T03:48:40;3.50;;;3.10;;
73678;SDS011;61978;52.742;16.962;2023-05-24T03:51:06;5.70;;;3.60;;
73678;SDS011;61978;52.742;16.962;2023-05-24T03:53:33;3.00;;;2.70;;
73678;SDS011;61978;52.742;16.962;2023-05-24T03:55:59;61.70;;;5.40;;
73678;SDS011;61978;52.742;16.962;2023-05-24T03:58:25;16.50;;;3.80;;
73678;SDS011;61978;52.742;16.962;2023-05-24T04:00:51;5.10;;;2.40;;
73678;SDS011;61978;52.742;16.962;2023-05-24T04:03:17;3.60;;;2.70;;
73678;SDS011;61978;52.742;16.962;2023-05-24T04:05:44;2.80;;;2.40;;
73678;SDS011;61978;52.742;16.962;2023-05-24T04:08:10;5.10;;;2.50;;
73678;SDS011;61978;52.742;16.962;2023-05-24T04:10:37;4.90;;;2.10;;
73678;SDS011;61978;52.742;16.962;2023-05-24T04:13:02;3.80;;;3.30;;
73678;SDS011;61978;52.742;16.962;2023-05-24T04:15:28;7.60;;;3.10;;
73678;SDS011;61978;52.742;16.962;2023-05-24T04:17:54;4.30;;;2.60;;
73678;SDS011;61978;52.742;16.962;2023-05-24T04:20:21;6.10;;;3.20;;
73678;SDS011;61978;52.742;16.962;2023-05-24T04:22:50;5.60;;;2.50;;
73678;SDS011;61978;52.742;16.962;2023-05-24T04:25:16;3.60;;;1.90;;
73678;SDS011;61978;52.742;16.962;2023-05-24T04:27:42;5.70;;;2.00;;
73678;SDS011;61978;52.742;16.962;2023-05-24T04:30:09;3.20;;;2.40;;
73678;SDS011;61978;52.742;16.962;2023-05-24T04:32:35;2.20;;;2.00;;
73678;SDS011;61978;52.742;16.962;2023-05-24T04:35:01;2.30;;;2.10;;
73678;SDS011;61978;52.742;16.962;2023-05-24T04:37:29;2.60;;;2.20;;
73678;SDS011;61978;52.742;16.962;2023-05-24T04:39:57;2.60;;;2.10;;
73678;SDS011;61978;52.742;16.962;2023-05-24T04:42:23;2.60;;;2.40;;
73678;SDS011;61978;52.742;16.962;2023-05-24T04:44:48;3.60;;;2.50;;
73678;SDS011;61978;52.742;16.962;2023-05-24T04:47:14;3.00;;;2.40;;
73678;SDS011;61978;52.742;16.962;2023-05-24T04:49:40;4.70;;;2.80;;
73678;SDS011;61978;52.742;16.962;2023-05-24T04:52:06;7.80;;;2.40;;
73678;SDS011;61978;52.742;16.962;2023-05-24T04:54:32;4.90;;;2.40;;
73678;SDS011;61978;52.742;16.962;2023-05-24T04:56:58;4.00;;;2.60;;
73678;SDS011;61978;52.742;16.962;2023-05-24T04:59:24;3.00;;;2.70;;
73678;SDS011;61978;52.742;16.962;2023-05-24T05:01:50;3.90;;;2.60;;
73678;SDS011;61978;52.742;16.962;2023-05-24T05:04:16;3.80;;;3.10;;
73678;SDS011;61978;52.742;16.962;2023-05-24T05:06:41;4.50;;;2.70;;
73678;SDS011;61978;52.742;16.962;2023-05-24T05:09:09;4.40;;;2.70;;
73678;SDS011;61978;52.742;16.962;2023-05-24T05:11:36;7.40;;;3.10;;
73678;SDS011;61978;52.742;16.962;2023-05-24T05:14:03;3.70;;;2.10;;
73678;SDS011;61978;52.742;16.962;2023-05-24T05:16:29;3.90;;;2.70;;
73678;SDS011;61978;52.742;16.962;2023-05-24T05:18:54;6.80;;;2.20;;
73678;SDS011;61978;52.742;16.962;2023-05-24T05:21:20;3.20;;;1.60;;
73678;SDS011;61978;52.742;16.962;2023-05-24T05:23:45;3.80;;;2.40;;
73678;SDS011;61978;52.742;16.962;2023-05-24T05:26:11;5.60;;;2.20;;
73678;SDS011;61978;52.742;16.962;2023-05-24T05:28:37;2.10;;;1.80;;
73678;SDS011;61978;52.742;16.962;2023-05-24T05:31:02;4.60;;;1.90;;
73678;SDS011;61978;52.742;16.962;2023-05-24T05:33:32;122.80;;;7.60;;
73678;SDS011;61978;52.742;16.962;2023-05-24T05:35:57;4.50;;;2.10;;
73678;SDS011;61978;52.742;16.962;2023-05-24T05:38:23;4.30;;;2.10;;
73678;SDS011;61978;52.742;16.962;2023-05-24T05:40:49;4.70;;;2.80;;
73678;SDS011;61978;52.742;16.962;2023-05-24T05:43:14;6.90;;;2.90;;
73678;SDS011;61978;52.742;16.962;2023-05-24T05:45:40;9.00;;;3.40;;
73678;SDS011;61978;52.742;16.962;2023-05-24T05:48:06;4.80;;;3.70;;
73678;SDS011;61978;52.742;16.962;2023-05-24T05:50:31;8.70;;;4.40;;
73678;SDS011;61978;52.742;16.962;2023-05-24T05:52:57;10.30;;;4.10;;
73678;SDS011;61978;52.742;16.962;2023-05-24T05:55:23;109.90;;;9.70;;
73678;SDS011;61978;52.742;16.962;2023-05-24T05:57:49;12.00;;;5.80;;
73678;SDS011;61978;52.742;16.962;2023-05-24T06:00:15;13.20;;;5.80;;
73678;SDS011;61978;52.742;16.962;2023-05-24T06:02:41;31.10;;;7.30;;
73678;SDS011;61978;52.742;16.962;2023-05-24T06:05:07;12.50;;;6.80;;
73678;SDS011;61978;52.742;16.962;2023-05-24T06:07:33;11.70;;;7.10;;
73678;SDS011;61978;52.742;16.962;2023-05-24T06:10:00;13.00;;;7.10;;
73678;SDS011;61978;52.742;16.962;2023-05-24T06:12:25;13.80;;;6.90;;
73678;SDS011;61978;52.742;16.962;2023-05-24T06:14:51;16.50;;;6.60;;
73678;SDS011;61978;52.742;16.962;2023-05-24T06:17:16;24.90;;;7.30;;
73678;SDS011;61978;52.742;16.962;2023-05-24T06:19:43;11.70;;;6.50;;
73678;SDS011;61978;52.742;16.962;2023-05-24T06:22:10;60.90;;;8.80;;
73678;SDS011;61978;52.742;16.962;2023-05-24T06:24:37;11.70;;;5.70;;
73678;SDS011;61978;52.742;16.962;2023-05-24T06:27:04;9.70;;;5.70;;
73678;SDS011;61978;52.742;16.962;2023-05-24T06:29:29;12.00;;;6.50;;
73678;SDS011;61978;52.742;16.962;2023-05-24T06:31:55;15.00;;;6.10;;
73678;SDS011;61978;52.742;16.962;2023-05-24T06:34:21;9.60;;;5.50;;
73678;SDS011;61978;52.742;16.962;2023-05-24T06:36:47;10.80;;;7.40;;
73678;SDS011;61978;52.742;16.962;2023-05-24T06:39:15;10.40;;;5.80;;
73678;SDS011;61978;52.742;16.962;2023-05-24T06:41:42;15.00;;;6.30;;
73678;SDS011;61978;52.742;16.962;2023-05-24T06:44:09;11.30;;;5.60;;
73678;SDS011;61978;52.742;16.962;2023-05-24T06:46:35;8.40;;;5.90;;
73678;SDS011;61978;52.742;16.962;2023-05-24T06:49:01;9.40;;;6.00;;
73678;SDS011;61978;52.742;16.962;2023-05-24T06:51:27;10.70;;;7.30;;
73678;SDS011;61978;52.742;16.962;2023-05-24T06:53:54;15.40;;;6.90;;
73678;SDS011;61978;52.742;16.962;2023-05-24T06:56:20;11.40;;;7.20;;
73678;SDS011;61978;52.742;16.962;2023-05-24T06:58:46;10.90;;;6.50;;
73678;SDS011;61978;52.742;16.962;2023-05-24T07:01:12;18.30;;;7.50;;
73678;SDS011;61978;52.742;16.962;2023-05-24T07:03:38;13.20;;;6.60;;
73678;SDS011;61978;52.742;16.962;2023-05-24T07:06:04;23.50;;;6.70;;
73678;SDS011;61978;52.742;16.962;2023-05-24T07:08:31;9.60;;;5.60;;
73678;SDS011;61978;52.742;16.962;2023-05-24T07:10:57;11.20;;;6.20;;
73678;SDS011;61978;52.742;16.962;2023-05-24T07:13:23;7.90;;;6.00;;
73678;SDS011;61978;52.742;16.962;2023-05-24T07:15:48;8.00;;;6.20;;
73678;SDS011;61978;52.742;16.962;2023-05-24T07:18:14;9.50;;;6.10;;
73678;SDS011;61978;52.742;16.962;2023-05-24T07:20:41;8.40;;;5.50;;
73678;SDS011;61978;52.742;16.962;2023-05-24T07:23:07;12.20;;;6.10;;
73678;SDS011;61978;52.742;16.962;2023-05-24T07:25:33;11.60;;;6.60;;
73678;SDS011;61978;52.742;16.962;2023-05-24T07:27:59;7.40;;;5.10;;
73678;SDS011;61978;52.742;16.962;2023-05-24T07:30:25;8.10;;;5.30;;
73678;SDS011;61978;52.742;16.962;2023-05-24T07:32:51;11.10;;;6.00;;
73678;SDS011;61978;52.742;16.962;2023-05-24T07:35:17;8.90;;;4.30;;
73678;SDS011;61978;52.742;16.962;2023-05-24T07:37:45;8.60;;;6.00;;
73678;SDS011;61978;52.742;16.962;2023-05-24T07:40:12;11.40;;;6.60;;
73678;SDS011;61978;52.742;16.962;2023-05-24T07:42:40;6.30;;;5.10;;
73678;SDS011;61978;52.742;16.962;2023-05-24T07:45:06;6.50;;;5.40;;
73678;SDS011;61978;52.742;16.962;2023-05-24T07:47:36;8.00;;;5.60;;
73678;SDS011;61978;52.742;16.962;2023-05-24T07:50:02;8.30;;;5.60;;
73678;SDS011;61978;52.742;16.962;2023-05-24T07:52:28;5.50;;;4.70;;
73678;SDS011;61978;52.742;16.962;2023-05-24T07:54:54;11.10;;;4.40;;
73678;SDS011;61978;52.742;16.962;2023-05-24T07:57:21;8.70;;;4.40;;
73678;SDS011;61978;52.742;16.962;2023-05-24T07:59:46;6.90;;;5.20;;
73678;SDS011;61978;52.742;16.962;2023-05-24T08:02:13;5.40;;;4.90;;
73678;SDS011;61978;52.742;16.962;2023-05-24T08:04:41;4.10;;;3.10;;
73678;SDS011;61978;52.742;16.962;2023-05-24T08:07:07;6.00;;;4.20;;
73678;SDS011;61978;52.742;16.962;2023-05-24T08:09:33;7.10;;;4.70;;
73678;SDS011;61978;52.742;16.962;2023-05-24T08:12:01;5.60;;;4.10;;
73678;SDS011;61978;52.742;16.962;2023-05-24T08:14:26;4.50;;;3.10;;
73678;SDS011;61978;52.742;16.962;2023-05-24T08:16:52;5.90;;;4.00;;
73678;SDS011;61978;52.742;16.962;2023-05-24T08:19:17;7.70;;;4.50;;
73678;SDS011;61978;52.742;16.962;2023-05-24T08:21:44;8.50;;;4.80;;
73678;SDS011;61978;52.742;16.962;2023-05-24T08:24:10;6.60;;;3.80;;
73678;SDS011;61978;52.742;16.962;2023-05-24T08:26:36;7.40;;;4.60;;
73678;SDS011;61978;52.742;16.962;2023-05-24T08:29:02;4.70;;;3.70;;
73678;SDS011;61978;52.742;16.962;2023-05-24T08:31:29;24.90;;;5.40;;
73678;SDS011;61978;52.742;16.962;2023-05-24T08:33:57;5.30;;;4.40;;
73678;SDS011;61978;52.742;16.962;2023-05-24T08:36:22;4.70;;;4.00;;
73678;SDS011;61978;52.742;16.962;2023-05-24T08:38:48;6.10;;;4.40;;
73678;SDS011;61978;52.742;16.962;2023-05-24T08:41:14;7.50;;;4.60;;
73678;SDS011;61978;52.742;16.962;2023-05-24T08:43:43;7.30;;;4.70;;
73678;SDS011;61978;52.742;16.962;2023-05-24T08:46:13;6.30;;;3.80;;
73678;SDS011;61978;52.742;16.962;2023-05-24T08:48:49;9.80;;;3.90;;
73678;SDS011;61978;52.742;16.962;2023-05-24T08:51:16;9.60;;;4.60;;
73678;SDS011;61978;52.742;16.962;2023-05-24T08:53:45;65.20;;;7.80;;
73678;SDS011;61978;52.742;16.962;2023-05-24T08:56:17;5.40;;;3.50;;
73678;SDS011;61978;52.742;16.962;2023-05-24T08:58:43;6.30;;;4.30;;
73678;SDS011;61978;52.742;16.962;2023-05-24T09:01:13;7.40;;;4.50;;
73678;SDS011;61978;52.742;16.962;2023-05-24T09:03:39;6.20;;;4.50;;
73678;SDS011;61978;52.742;16.962;2023-05-24T09:06:06;9.20;;;6.10;;
73678;SDS011;61978;52.742;16.962;2023-05-24T09:08:31;8.90;;;5.60;;
73678;SDS011;61978;52.742;16.962;2023-05-24T09:11:00;6.70;;;4.50;;
73678;SDS011;61978;52.742;16.962;2023-05-24T09:13:26;8.00;;;5.20;;
73678;SDS011;61978;52.742;16.962;2023-05-24T09:15:52;9.00;;;5.90;;
73678;SDS011;61978;52.742;16.962;2023-05-24T09:18:18;14.00;;;7.80;;
73678;SDS011;61978;52.742;16.962;2023-05-24T09:20:44;8.40;;;6.00;;
73678;SDS011;61978;52.742;16.962;2023-05-24T09:23:11;11.00;;;7.60;;
73678;SDS011;61978;52.742;16.962;2023-05-24T09:25:44;10.80;;;5.50;;
73678;SDS011;61978;52.742;16.962;2023-05-24T09:28:21;8.20;;;6.70;;
73678;SDS011;61978;52.742;16.962;2023-05-24T09:30:57;12.30;;;6.50;;
73678;SDS011;61978;52.742;16.962;2023-05-24T09:33:24;11.20;;;6.90;;
73678;SDS011;61978;52.742;16.962;2023-05-24T09:35:55;14.70;;;5.30;;
73678;SDS011;61978;52.742;16.962;2023-05-24T09:38:21;10.30;;;5.80;;
73678;SDS011;61978;52.742;16.962;2023-05-24T09:40:47;8.00;;;5.30;;
73678;SDS011;61978;52.742;16.962;2023-05-24T09:43:21;41.70;;;8.20;;
73678;SDS011;61978;52.742;16.962;2023-05-24T09:45:48;16.50;;;12.40;;
73678;SDS011;61978;52.742;16.962;2023-05-24T09:48:14;13.60;;;8.60;;
73678;SDS011;61978;52.742;16.962;2023-05-24T09:50:41;19.30;;;6.60;;
73678;SDS011;61978;52.742;16.962;2023-05-24T09:53:09;8.80;;;5.50;;
73678;SDS011;61978;52.742;16.962;2023-05-24T09:55:36;22.50;;;6.70;;
73678;SDS011;61978;52.742;16.962;2023-05-24T09:58:02;9.50;;;7.00;;
73678;SDS011;61978;52.742;16.962;2023-05-24T10:00:29;13.30;;;8.50;;
73678;SDS011;61978;52.742;16.962;2023-05-24T10:03:00;11.40;;;6.40;;
73678;SDS011;61978;52.742;16.962;2023-05-24T10:05:27;15.20;;;7.60;;
73678;SDS011;61978;52.742;16.962;2023-05-24T10:07:54;11.50;;;7.60;;
73678;SDS011;61978;52.742;16.962;2023-05-24T10:10:20;14.20;;;7.80;;
73678;SDS011;61978;52.742;16.962;2023-05-24T10:12:46;9.90;;;7.30;;
73678;SDS011;61978;52.742;16.962;2023-05-24T10:15:13;12.20;;;8.30;;
73678;SDS011;61978;52.742;16.962;2023-05-24T10:17:40;19.40;;;8.40;;
73678;SDS011;61978;52.742;16.962;2023-05-24T10:20:05;14.00;;;8.00;;
73678;SDS011;61978;52.742;16.962;2023-05-24T10:22:31;10.90;;;7.70;;
73678;SDS011;61978;52.742;16.962;2023-05-24T10:24:58;11.80;;;6.90;;
73678;SDS011;61978;52.742;16.962;2023-05-24T10:27:25;51.50;;;8.90;;
73678;SDS011;61978;52.742;16.962;2023-05-24T10:32:28;42.70;;;8.70;;
73678;SDS011;61978;52.742;16.962;2023-05-24T10:34:59;8.10;;;6.20;;
73678;SDS011;61978;52.742;16.962;2023-05-24T10:37:26;13.10;;;7.40;;
73678;SDS011;61978;52.742;16.962;2023-05-24T10:39:52;13.00;;;8.20;;
73678;SDS011;61978;52.742;16.962;2023-05-24T10:42:17;14.80;;;7.70;;
73678;SDS011;61978;52.742;16.962;2023-05-24T10:44:44;16.00;;;8.40;;
73678;SDS011;61978;52.742;16.962;2023-05-24T10:47:10;12.90;;;6.30;;
73678;SDS011;61978;52.742;16.962;2023-05-24T10:49:47;20.40;;;8.70;;
73678;SDS011;61978;52.742;16.962;2023-05-24T10:52:13;15.30;;;8.10;;
73678;SDS011;61978;52.742;16.962;2023-05-24T10:54:39;14.20;;;8.70;;
73678;SDS011;61978;52.742;16.962;2023-05-24T10:57:05;18.30;;;9.40;;
73678;SDS011;61978;52.742;16.962;2023-05-24T10:59:35;17.20;;;9.20;;
73678;SDS011;61978;52.742;16.962;2023-05-24T11:02:05;11.60;;;7.80;;
73678;SDS011;61978;52.742;16.962;2023-05-24T11:04:46;11.00;;;7.10;;
73678;SDS011;61978;52.742;16.962;2023-05-24T11:07:13;11.80;;;8.70;;
73678;SDS011;61978;52.742;16.962;2023-05-24T11:09:40;14.80;;;8.80;;
73678;SDS011;61978;52.742;16.962;2023-05-24T11:12:16;57.60;;;11.30;;
73678;SDS011;61978;52.742;16.962;2023-05-24T11:14:49;19.10;;;7.90;;
73678;SDS011;61978;52.742;16.962;2023-05-24T11:17:15;16.60;;;8.20;;
73678;SDS011;61978;52.742;16.962;2023-05-24T11:19:45;15.80;;;8.10;;
73678;SDS011;61978;52.742;16.962;2023-05-24T11:22:12;16.30;;;9.40;;
73678;SDS011;61978;52.742;16.962;2023-05-24T11:24:39;13.50;;;7.70;;
73678;SDS011;61978;52.742;16.962;2023-05-24T11:27:06;15.90;;;8.50;;
73678;SDS011;61978;52.742;16.962;2023-05-24T11:29:32;19.70;;;8.40;;
73678;SDS011;61978;52.742;16.962;2023-05-24T11:32:05;13.80;;;8.20;;
73678;SDS011;61978;52.742;16.962;2023-05-24T11:34:32;19.80;;;7.90;;
73678;SDS011;61978;52.742;16.962;2023-05-24T11:36:59;19.30;;;10.30;;
73678;SDS011;61978;52.742;16.962;2023-05-24T11:39:29;16.10;;;9.90;;
73678;SDS011;61978;52.742;16.962;2023-05-24T11:41:55;22.30;;;10.60;;
73678;SDS011;61978;52.742;16.962;2023-05-24T11:44:21;16.60;;;9.60;;
73678;SDS011;61978;52.742;16.962;2023-05-24T11:46:47;17.90;;;9.70;;
73678;SDS011;61978;52.742;16.962;2023-05-24T11:49:13;19.40;;;8.30;;
73678;SDS011;61978;52.742;16.962;2023-05-24T11:51:40;15.40;;;8.10;;
73678;SDS011;61978;52.742;16.962;2023-05-24T11:54:06;20.80;;;9.90;;
73678;SDS011;61978;52.742;16.962;2023-05-24T11:56:32;14.80;;;7.90;;
73678;SDS011;61978;52.742;16.962;2023-05-24T11:59:13;16.50;;;9.40;;
73678;SDS011;61978;52.742;16.962;2023-05-24T12:01:39;13.40;;;8.20;;
73678;SDS011;61978;52.742;16.962;2023-05-24T12:04:06;20.00;;;8.90;;
73678;SDS011;61978;52.742;16.962;2023-05-24T12:06:40;18.40;;;10.70;;
73678;SDS011;61978;52.742;16.962;2023-05-24T12:09:07;17.00;;;9.10;;
73678;SDS011;61978;52.742;16.962;2023-05-24T12:11:36;18.60;;;10.80;;
73678;SDS011;61978;52.742;16.962;2023-05-24T12:14:02;15.80;;;9.00;;
73678;SDS011;61978;52.742;16.962;2023-05-24T12:16:29;24.50;;;11.30;;
73678;SDS011;61978;52.742;16.962;2023-05-24T12:18:57;18.80;;;8.50;;
73678;SDS011;61978;52.742;16.962;2023-05-24T12:21:23;55.10;;;10.90;;
73678;SDS011;61978;52.742;16.962;2023-05-24T12:23:49;16.40;;;8.40;;
73678;SDS011;61978;52.742;16.962;2023-05-24T12:26:16;15.30;;;7.20;;
73678;SDS011;61978;52.742;16.962;2023-05-24T12:28:46;23.80;;;10.10;;
73678;SDS011;61978;52.742;16.962;2023-05-24T12:31:13;21.60;;;10.00;;
73678;SDS011;61978;52.742;16.962;2023-05-24T12:33:38;17.30;;;9.40;;
73678;SDS011;61978;52.742;16.962;2023-05-24T12:36:04;20.30;;;10.30;;
73678;SDS011;61978;52.742;16.962;2023-05-24T12:38:30;19.90;;;11.30;;
73678;SDS011;61978;52.742;16.962;2023-05-24T12:40:56;18.20;;;9.80;;
73678;SDS011;61978;52.742;16.962;2023-05-24T12:43:22;15.20;;;8.60;;
73678;SDS011;61978;52.742;16.962;2023-05-24T12:45:49;17.50;;;8.50;;
73678;SDS011;61978;52.742;16.962;2023-05-24T12:48:14;18.00;;;8.70;;
73678;SDS011;61978;52.742;16.962;2023-05-24T12:50:41;28.40;;;12.70;;
73678;SDS011;61978;52.742;16.962;2023-05-24T12:53:07;19.00;;;9.30;;
73678;SDS011;61978;52.742;16.962;2023-05-24T12:55:32;12.60;;;7.30;;
73678;SDS011;61978;52.742;16.962;2023-05-24T12:57:58;20.30;;;9.80;;
73678;SDS011;61978;52.742;16.962;2023-05-24T13:00:27;16.80;;;8.20;;
73678;SDS011;61978;52.742;16.962;2023-05-24T13:02:54;22.10;;;9.30;;
73678;SDS011;61978;52.742;16.962;2023-05-24T13:05:23;28.60;;;8.80;;
73678;SDS011;61978;52.742;16.962;2023-05-24T13:07:49;210.40;;;21.70;;
73678;SDS011;61978;52.742;16.962;2023-05-24T13:10:15;19.80;;;10.70;;
73678;SDS011;61978;52.742;16.962;2023-05-24T13:12:41;26.20;;;12.30;;
73678;SDS011;61978;52.742;16.962;2023-05-24T13:15:08;20.00;;;9.50;;
73678;SDS011;61978;52.742;16.962;2023-05-24T13:17:42;23.00;;;13.00;;
73678;SDS011;61978;52.742;16.962;2023-05-24T13:20:07;24.90;;;13.90;;
73678;SDS011;61978;52.742;16.962;2023-05-24T13:22:36;28.80;;;12.30;;
73678;SDS011;61978;52.742;16.962;2023-05-24T13:25:02;41.60;;;22.90;;
73678;SDS011;61978;52.742;16.962;2023-05-24T13:27:28;40.90;;;22.30;;
73678;SDS011;61978;52.742;16.962;2023-05-24T13:29:54;19.00;;;10.50;;
73678;SDS011;61978;52.742;16.962;2023-05-24T13:32:20;26.20;;;11.60;;
73678;SDS011;61978;52.742;16.962;2023-05-24T13:34:46;33.80;;;18.00;;
73678;SDS011;61978;52.742;16.962;2023-05-24T13:37:12;22.00;;;10.90;;
73678;SDS011;61978;52.742;16.962;2023-05-24T13:39:37;18.30;;;10.80;;
73678;SDS011;61978;52.742;16.962;2023-05-24T13:42:03;33.50;;;17.00;;
73678;SDS011;61978;52.742;16.962;2023-05-24T13:44:29;21.90;;;11.90;;
73678;SDS011;61978;52.742;16.962;2023-05-24T13:46:57;29.50;;;15.70;;
73678;SDS011;61978;52.742;16.962;2023-05-24T13:49:23;42.80;;;15.10;;
73678;SDS011;61978;52.742;16.962;2023-05-24T13:51:48;22.00;;;12.00;;
73678;SDS011;61978;52.742;16.962;2023-05-24T13:54:14;22.40;;;12.10;;
73678;SDS011;61978;52.742;16.962;2023-05-24T13:56:40;23.40;;;11.40;;
73678;SDS011;61978;52.742;16.962;2023-05-24T13:59:09;21.60;;;10.70;;
73678;SDS011;61978;52.742;16.962;2023-05-24T14:01:35;21.40;;;11.20;;
73678;SDS011;61978;52.742;16.962;2023-05-24T14:04:03;24.80;;;13.50;;
73678;SDS011;61978;52.742;16.962;2023-05-24T14:06:30;23.80;;;12.40;;
73678;SDS011;61978;52.742;16.962;2023-05-24T14:08:56;20.10;;;9.80;;
73678;SDS011;61978;52.742;16.962;2023-05-24T14:11:23;28.80;;;15.00;;
73678;SDS011;61978;52.742;16.962;2023-05-24T14:13:49;28.20;;;13.50;;
73678;SDS011;61978;52.742;16.962;2023-05-24T14:16:15;22.40;;;12.20;;
73678;SDS011;61978;52.742;16.962;2023-05-24T14:18:41;20.10;;;10.90;;
73678;SDS011;61978;52.742;16.962;2023-05-24T14:21:07;45.30;;;12.70;;
73678;SDS011;61978;52.742;16.962;2023-05-24T14:23:33;29.60;;;12.30;;
73678;SDS011;61978;52.742;16.962;2023-05-24T14:25:59;21.40;;;11.00;;
73678;SDS011;61978;52.742;16.962;2023-05-24T14:28:25;17.10;;;10.40;;
73678;SDS011;61978;52.742;16.962;2023-05-24T14:30:51;23.50;;;13.40;;
73678;SDS011;61978;52.742;16.962;2023-05-24T14:33:17;27.80;;;13.40;;